Time;durP1;ratioP1;P1;durP2;ratioP2;P2;SDS_P1;SDS_P2;PMS_P1;PMS_P2;Temp;Humidity;BMP_temperature;BMP_pressure;BME280_temperature;BME280_humidity;BME280_pressure;Samples;Min_cycle;Max_cycle;Signal;HPM_P1;HPM_P2
2021/04/07 00:00:21;;;;;;;1.87;1.00;;;16.60;52.30;;;;;;4919047;29;20195;-84
2021/04/07 00:02:49;;;;;;;3.13;0.90;;;16.60;52.30;;;;;;4904774;29;20203;-85
2021/04/07 00:05:19;;;;;;;1.83;1.03;;;16.50;52.30;;;;;;4901040;29;20192;-85
2021/04/07 00:07:48;;;;;;;2.57;1.00;;;16.60;52.40;;;;;;4902837;29;20195;-85
2021/04/07 00:10:16;;;;;;;1.60;1.00;;;16.50;52.20;;;;;;4918999;29;20188;-85
2021/04/07 00:12:43;;;;;;;2.63;1.20;;;16.50;52.30;;;;;;4919727;29;20202;-85
2021/04/07 00:15:19;;;;;;;1.00;0.73;;;16.60;52.40;;;;;;4919194;29;20234;-87
2021/04/07 00:17:46;;;;;;;1.70;0.90;;;16.50;52.30;;;;;;4915377;29;20690;-87
2021/04/07 00:20:15;;;;;;;3.03;1.27;;;16.50;52.30;;;;;;4918044;29;20203;-87
2021/04/07 00:22:48;;;;;;;1.97;0.90;;;16.50;52.30;;;;;;4898503;29;20264;-87
2021/04/07 00:25:15;;;;;;;1.93;1.00;;;16.50;52.40;;;;;;4915831;29;20230;-86
2021/04/07 00:27:43;;;;;;;2.43;0.93;;;16.50;52.30;;;;;;4903509;29;20557;-86
2021/04/07 00:30:11;;;;;;;3.33;1.07;;;16.50;52.30;;;;;;4907254;29;20198;-85
2021/04/07 00:32:38;;;;;;;2.33;0.80;;;16.40;52.30;;;;;;4918961;29;20203;-86
2021/04/07 00:35:05;;;;;;;1.70;1.00;;;16.50;52.30;;;;;;4906059;29;20204;-85
2021/04/07 00:37:31;;;;;;;4.57;0.90;;;16.50;52.30;;;;;;4883710;29;20211;-85
2021/04/07 00:39:58;;;;;;;1.77;0.80;;;16.50;52.40;;;;;;4900158;29;20207;-85
2021/04/07 00:42:24;;;;;;;2.10;1.10;;;16.40;52.30;;;;;;4883790;29;20568;-84
2021/04/07 00:44:50;;;;;;;1.17;0.67;;;16.50;52.40;;;;;;4899079;29;20280;-85
2021/04/07 00:47:19;;;;;;;1.77;1.00;;;16.40;52.20;;;;;;4899725;29;20200;-85
2021/04/07 00:49:45;;;;;;;2.87;1.00;;;16.50;52.40;;;;;;4910248;29;20195;-85
2021/04/07 00:52:15;;;;;;;1.53;0.80;;;16.40;52.30;;;;;;4904781;29;20258;-85
2021/04/07 00:54:42;;;;;;;1.63;0.83;;;16.50;53.00;;;;;;4883294;29;20212;-85
2021/04/07 00:57:09;;;;;;;1.33;0.63;;;16.40;52.30;;;;;;4900595;29;20246;-85
2021/04/07 00:59:35;;;;;;;3.27;0.90;;;16.40;52.20;;;;;;4910381;29;20190;-84
2021/04/07 01:02:02;;;;;;;1.40;0.90;;;16.40;52.30;;;;;;4916754;29;20199;-83
2021/04/07 01:04:31;;;;;;;1.87;0.90;;;16.40;52.30;;;;;;4918781;29;20227;-83
2021/04/07 01:07:01;;;;;;;1.40;0.80;;;16.40;52.50;;;;;;4917283;29;20226;-84
2021/04/07 01:09:27;;;;;;;2.77;0.80;;;16.40;52.30;;;;;;4917790;29;20203;-84
2021/04/07 01:11:53;;;;;;;1.70;0.67;;;16.50;52.30;;;;;;4919141;29;20203;-84
2021/04/07 01:14:26;;;;;;;1.90;0.90;;;16.40;52.20;;;;;;4911524;29;20200;-84
2021/04/07 01:16:55;;;;;;;1.37;0.70;;;16.40;52.10;;;;;;4916921;29;20219;-84
2021/04/07 01:19:25;;;;;;;2.07;0.80;;;16.40;52.20;;;;;;4917969;29;20744;-84
2021/04/07 01:21:53;;;;;;;1.10;0.70;;;16.40;52.10;;;;;;4907296;29;20369;-84
2021/04/07 01:24:21;;;;;;;2.10;1.00;;;16.40;52.10;;;;;;4889579;29;20202;-84
2021/04/07 01:26:47;;;;;;;1.40;0.90;;;16.40;52.00;;;;;;4900923;29;20183;-84
2021/04/07 01:29:14;;;;;;;3.00;0.93;;;16.40;52.10;;;;;;4899821;29;20211;-85
2021/04/07 01:31:59;;;;;;;1.90;0.73;;;16.30;52.00;;;;;;4898581;29;20219;-86
2021/04/07 01:34:27;;;;;;;1.40;0.70;;;16.30;52.00;;;;;;4918248;29;20294;-86
2021/04/07 01:36:57;;;;;;;2.07;0.63;;;16.30;52.00;;;;;;4917589;29;20700;-86
2021/04/07 01:39:26;;;;;;;2.20;0.80;;;16.30;52.00;;;;;;4898399;29;20218;-85
2021/04/07 01:41:53;;;;;;;1.20;0.67;;;16.30;51.90;;;;;;4882127;29;20735;-85
2021/04/07 01:44:24;;;;;;;1.70;0.77;;;16.30;52.00;;;;;;4889688;29;20289;-85
2021/04/07 01:46:52;;;;;;;1.83;0.70;;;16.30;52.00;;;;;;4918524;29;20210;-85
2021/04/07 01:49:24;;;;;;;1.53;0.80;;;16.30;52.00;;;;;;4917299;29;20202;-85
2021/04/07 01:51:50;;;;;;;1.40;0.70;;;16.30;51.90;;;;;;4916455;29;20199;-86
2021/04/07 01:54:16;;;;;;;2.03;0.83;;;16.30;52.00;;;;;;4917653;29;20186;-85
2021/04/07 01:56:57;;;;;;;1.93;0.73;;;16.30;51.90;;;;;;4894530;29;20230;-86
2021/04/07 01:59:31;;;;;;;2.30;0.70;;;16.30;52.00;;;;;;4903172;29;20211;-86
2021/04/07 02:01:59;;;;;;;1.33;0.67;;;16.30;52.00;;;;;;4917944;29;20206;-85
2021/04/07 02:04:26;;;;;;;1.63;0.50;;;16.30;52.00;;;;;;4916113;29;20193;-87
2021/04/07 02:06:55;;;;;;;1.33;0.70;;;16.30;52.00;;;;;;4916415;29;20201;-86
2021/04/07 02:09:27;;;;;;;1.03;0.80;;;16.30;51.90;;;;;;4916861;29;20215;-85
2021/04/07 02:11:59;;;;;;;2.40;0.90;;;16.30;51.90;;;;;;4916495;29;20203;-86
2021/04/07 02:14:28;;;;;;;2.00;0.60;;;16.30;51.90;;;;;;4900862;29;20211;-86
2021/04/07 02:16:56;;;;;;;2.77;0.83;;;16.30;51.90;;;;;;4881712;29;20719;-87
2021/04/07 02:19:31;;;;;;;1.83;0.80;;;16.20;51.90;;;;;;4910961;29;20772;-86
2021/04/07 02:22:15;;;;;;;1.57;0.50;;;16.20;51.90;;;;;;4916942;29;20566;-86
2021/04/07 02:24:46;;;;;;;1.53;0.97;;;16.20;51.90;;;;;;4917177;29;20195;-86
2021/04/07 02:27:17;;;;;;;3.77;0.93;;;16.30;51.90;;;;;;4916039;29;20199;-86
2021/04/07 02:29:46;;;;;;;1.20;0.50;;;16.20;51.80;;;;;;4916952;29;20211;-86
2021/04/07 02:32:12;;;;;;;3.07;0.80;;;16.20;51.80;;;;;;4916734;29;20203;-86
2021/04/07 02:34:40;;;;;;;1.47;0.67;;;16.20;51.80;;;;;;4916867;29;20195;-86
2021/04/07 02:37:06;;;;;;;1.40;0.90;;;16.20;51.80;;;;;;4916490;29;20750;-87
2021/04/07 02:39:39;;;;;;;2.13;0.80;;;16.30;51.80;;;;;;4908736;29;20191;-85
2021/04/07 02:42:06;;;;;;;1.83;0.70;;;16.20;51.80;;;;;;4881675;29;20191;-86
2021/04/07 02:44:36;;;;;;;2.00;0.50;;;16.20;52.40;;;;;;4908023;29;20195;-86
2021/04/07 02:47:05;;;;;;;0.83;0.53;;;16.20;51.80;;;;;;4920016;29;20199;-85
2021/04/07 02:49:33;;;;;;;0.77;0.50;;;16.20;51.80;;;;;;4919373;29;20202;-85
2021/04/07 02:51:59;;;;;;;1.33;0.80;;;16.20;51.70;;;;;;4919204;29;20563;-84
2021/04/07 02:54:27;;;;;;;1.13;0.50;;;16.20;51.70;;;;;;4920946;29;20274;-83
2021/04/07 02:56:54;;;;;;;1.73;0.70;;;16.20;51.80;;;;;;4901995;29;20219;-84
2021/04/07 02:59:23;;;;;;;2.43;0.67;;;16.20;51.70;;;;;;4902862;29;20236;-84
2021/04/07 03:01:49;;;;;;;2.93;0.60;;;16.20;51.70;;;;;;4902307;29;20203;-85
2021/04/07 03:04:16;;;;;;;1.43;0.40;;;16.20;51.70;;;;;;4908523;29;20188;-85
2021/04/07 03:06:46;;;;;;;1.67;0.70;;;16.20;51.70;;;;;;4921216;29;20206;-85
2021/04/07 03:09:13;;;;;;;1.40;0.80;;;16.20;51.70;;;;;;4914553;29;20542;-85
2021/04/07 03:11:39;;;;;;;1.47;0.67;;;16.20;51.60;;;;;;4901280;29;20215;-85
2021/04/07 03:14:06;;;;;;;2.07;0.80;;;16.20;51.60;;;;;;4901015;29;20204;-85
2021/04/07 03:16:39;;;;;;;1.80;0.67;;;16.20;51.60;;;;;;4886258;29;20234;-85
2021/04/07 03:19:07;;;;;;;1.10;0.50;;;16.20;51.70;;;;;;4889605;29;20683;-84
2021/04/07 03:21:33;;;;;;;0.90;0.50;;;16.10;51.60;;;;;;4920390;29;20254;-85
2021/04/07 03:24:00;;;;;;;0.87;0.40;;;16.20;51.60;;;;;;4915113;29;20204;-85
2021/04/07 03:26:26;;;;;;;1.50;0.67;;;16.10;51.60;;;;;;4885356;29;20223;-85
2021/04/07 03:28:52;;;;;;;0.90;0.50;;;16.20;51.60;;;;;;4902506;29;20184;-85
2021/04/07 03:31:19;;;;;;;0.83;0.43;;;16.20;51.60;;;;;;4884740;29;20204;-86
2021/04/07 03:33:48;;;;;;;1.40;0.63;;;16.10;51.50;;;;;;4884733;29;20218;-85
2021/04/07 03:36:16;;;;;;;0.97;0.63;;;16.10;51.60;;;;;;4900270;29;20223;-87
2021/04/07 03:38:42;;;;;;;1.47;0.43;;;16.10;51.50;;;;;;4886224;29;20671;-89
2021/04/07 03:41:11;;;;;;;1.30;0.80;;;16.20;51.50;;;;;;4909681;29;20577;-88
2021/04/07 03:43:37;;;;;;;1.23;0.70;;;16.20;51.50;;;;;;4903574;29;20202;-87
2021/04/07 03:46:04;;;;;;;3.70;0.83;;;16.10;51.50;;;;;;4916842;29;20187;-84
2021/04/07 03:48:31;;;;;;;2.17;1.17;;;16.20;52.40;;;;;;4917912;29;20207;-85
2021/04/07 03:51:03;;;;;;;3.33;0.80;;;16.30;52.30;;;;;;4903348;29;20199;-90
2021/04/07 03:53:31;;;;;;;2.57;0.77;;;16.30;52.40;;;;;;4884730;29;20195;-92
2021/04/07 03:55:58;;;;;;;1.17;0.50;;;16.50;52.40;;;;;;4921041;29;20223;-92
2021/04/07 03:58:25;;;;;;;1.57;0.67;;;16.40;52.20;;;;;;4899303;29;20924;-90
2021/04/07 04:01:01;;;;;;;2.07;0.70;;;16.50;52.40;;;;;;4912628;29;20218;-88
2021/04/07 04:03:27;;;;;;;2.00;0.90;;;16.50;52.20;;;;;;4920634;29;20190;-90
2021/04/07 04:05:54;;;;;;;2.77;0.80;;;16.50;51.90;;;;;;4919150;29;20210;-92
2021/04/07 04:08:20;;;;;;;1.73;0.60;;;16.60;51.90;;;;;;4921387;29;20207;-93
2021/04/07 04:10:49;;;;;;;2.50;0.40;;;16.60;51.70;;;;;;4914918;29;20656;-90
2021/04/07 04:13:16;;;;;;;1.47;0.80;;;16.60;51.70;;;;;;4919639;29;20195;-92
2021/04/07 04:15:42;;;;;;;1.40;0.80;;;16.70;51.60;;;;;;4910267;29;20203;-90
2021/04/07 04:18:17;;;;;;;2.70;0.70;;;16.70;51.50;;;;;;4922838;29;20207;-89
2021/04/07 04:20:47;;;;;;;1.93;0.70;;;16.70;51.40;;;;;;4901695;29;20260;-89
2021/04/07 04:23:15;;;;;;;1.03;0.50;;;16.70;51.30;;;;;;4894368;29;20258;-92
2021/04/07 04:25:42;;;;;;;0.80;0.60;;;16.80;51.20;;;;;;4901607;29;20204;-86
2021/04/07 04:28:08;;;;;;;2.00;0.57;;;16.80;51.00;;;;;;4901012;29;20661;-87
2021/04/07 04:30:34;;;;;;;1.27;0.60;;;16.90;51.00;;;;;;4912735;29;20679;-89
2021/04/07 04:33:21;;;;;;;2.43;1.13;;;16.90;50.90;;;;;;4901063;29;20198;-87
2021/04/07 04:35:47;;;;;;;2.40;0.87;;;16.90;50.80;;;;;;4887407;29;20203;-84
2021/04/07 04:38:16;;;;;;;1.83;0.80;;;16.90;50.80;;;;;;4917342;29;20199;-85
2021/04/07 04:40:43;;;;;;;2.50;0.70;;;16.90;50.80;;;;;;4914562;29;20776;-84
2021/04/07 04:43:12;;;;;;;5.77;0.90;;;16.90;50.50;;;;;;4917168;29;20568;-87
2021/04/07 04:45:39;;;;;;;1.20;0.63;;;17.00;50.50;;;;;;4917493;29;20574;-87
2021/04/07 04:48:06;;;;;;;1.40;0.70;;;17.00;50.50;;;;;;4899570;29;20214;-86
2021/04/07 04:50:32;;;;;;;1.70;0.80;;;17.00;50.30;;;;;;4901375;29;20208;-84
2021/04/07 04:52:59;;;;;;;1.97;0.90;;;17.00;50.40;;;;;;4904260;29;20708;-88
2021/04/07 04:55:31;;;;;;;1.13;0.70;;;17.00;50.30;;;;;;4915430;29;20199;-88
2021/04/07 04:57:58;;;;;;;1.70;0.80;;;17.10;50.50;;;;;;4899409;29;20238;-87
2021/04/07 05:00:24;;;;;;;2.30;0.90;;;17.00;50.10;;;;;;4896138;29;20561;-89
2021/04/07 05:02:50;;;;;;;1.07;0.53;;;17.00;50.00;;;;;;4918983;29;20207;-90
2021/04/07 05:05:16;;;;;;;1.97;0.77;;;17.00;50.00;;;;;;4918508;29;20205;-90
2021/04/07 05:07:43;;;;;;;1.43;0.97;;;17.00;50.00;;;;;;4902069;29;20195;-90
2021/04/07 05:10:13;;;;;;;1.27;0.80;;;17.00;50.00;;;;;;4917941;29;20191;-89
2021/04/07 05:12:39;;;;;;;1.37;0.93;;;16.90;49.90;;;;;;4897436;29;20206;-89
2021/04/07 05:15:10;;;;;;;0.73;0.60;;;16.90;49.90;;;;;;4884515;29;20661;-89
2021/04/07 05:17:36;;;;;;;2.10;0.97;;;16.90;49.90;;;;;;4883974;29;20227;-89
2021/04/07 05:20:07;;;;;;;1.77;0.80;;;16.90;50.00;;;;;;4898019;29;20195;-89
2021/04/07 05:22:34;;;;;;;1.50;0.70;;;16.80;50.00;;;;;;4876304;29;20315;-87
2021/04/07 05:25:03;;;;;;;1.93;0.80;;;16.80;50.00;;;;;;4892078;29;20744;-87
2021/04/07 05:27:29;;;;;;;1.43;0.77;;;16.70;49.90;;;;;;4882569;29;20203;-90
2021/04/07 05:29:58;;;;;;;2.10;0.70;;;16.70;49.90;;;;;;4878188;29;20216;-87
2021/04/07 05:32:25;;;;;;;2.37;1.10;;;16.70;50.00;;;;;;4882295;29;20290;-89
2021/04/07 05:34:52;;;;;;;3.87;0.80;;;16.70;50.00;;;;;;4899174;29;20673;-84
2021/04/07 05:37:24;;;;;;;1.03;0.70;;;16.70;50.00;;;;;;4888299;29;20232;-89
2021/04/07 05:39:51;;;;;;;0.57;0.43;;;16.70;50.00;;;;;;4877459;29;20203;-87
2021/04/07 05:42:17;;;;;;;2.47;0.70;;;16.70;50.00;;;;;;4885148;29;20212;-87
2021/04/07 05:44:43;;;;;;;2.23;0.80;;;16.60;50.00;;;;;;4885443;29;20208;-89
2021/04/07 05:47:10;;;;;;;6.33;1.00;;;16.60;50.50;;;;;;4897238;29;20218;-87
2021/04/07 05:49:36;;;;;;;3.40;0.70;;;16.60;50.80;;;;;;4877908;29;20812;-86
2021/04/07 05:52:02;;;;;;;2.73;0.90;;;16.60;50.80;;;;;;4883963;29;20204;-87
2021/04/07 05:54:29;;;;;;;1.37;0.70;;;16.60;50.90;;;;;;4896148;29;20705;-87
2021/04/07 05:56:55;;;;;;;4.53;1.13;;;16.50;50.90;;;;;;4897168;29;20714;-87
2021/04/07 05:59:21;;;;;;;13.83;0.93;;;16.50;50.90;;;;;;4882486;29;20280;-87
2021/04/07 06:01:48;;;;;;;4.53;1.00;;;16.60;50.90;;;;;;4859731;29;20212;-89
2021/04/07 06:04:15;;;;;;;3.43;0.93;;;16.50;50.80;;;;;;4886407;29;20200;-91
2021/04/07 06:06:44;;;;;;;3.10;0.73;;;16.50;50.80;;;;;;4880836;29;20192;-90
2021/04/07 06:09:11;;;;;;;3.30;0.83;;;16.50;50.80;;;;;;4890323;29;20192;-90
2021/04/07 06:11:37;;;;;;;3.50;0.90;;;16.50;50.80;;;;;;4893640;29;20213;-91
2021/04/07 06:14:03;;;;;;;3.60;1.00;;;16.50;50.80;;;;;;4892972;29;20581;-84
2021/04/07 06:16:30;;;;;;;6.73;1.13;;;16.50;51.20;;;;;;4890457;29;20248;-86
2021/04/07 06:18:56;;;;;;;3.60;1.20;;;16.50;51.90;;;;;;4888141;29;20203;-85
2021/04/07 06:21:22;;;;;;;3.77;0.90;;;16.50;52.00;;;;;;4896077;29;20239;-93
2021/04/07 06:23:51;;;;;;;7.03;1.30;;;16.50;52.00;;;;;;4897681;29;20282;-90
2021/04/07 06:26:18;;;;;;;3.97;1.13;;;16.40;52.00;;;;;;4916422;29;20598;-92
2021/04/07 06:28:44;;;;;;;6.40;0.97;;;16.50;51.80;;;;;;4914870;23;20230;-92
2021/04/07 06:31:14;;;;;;;6.93;1.30;;;16.50;52.20;;;;;;4949448;29;20206;-90
2021/04/07 06:33:50;;;;;;;2.57;1.00;;;16.50;51.70;;;;;;4939694;29;20187;-91
2021/04/07 06:36:16;;;;;;;2.93;1.00;;;16.50;51.60;;;;;;4946860;28;20214;-91
2021/04/07 06:38:46;;;;;;;4.20;1.20;;;16.40;51.40;;;;;;4944910;29;20198;-90
2021/04/07 06:41:34;;;;;;;4.03;0.90;;;16.40;51.50;;;;;;4920242;29;20210;-94
2021/04/07 06:44:22;;;;;;;9.33;1.10;;;16.40;51.40;;;;;;4925466;29;20195;-92
2021/04/07 06:47:17;;;;;;;3.33;1.20;;;16.40;51.40;;;;;;4941017;29;20227;-94
2021/04/07 06:49:54;;;;;;;3.10;0.93;;;16.40;51.40;;;;;;4929771;29;20286;-95
2021/04/07 06:52:27;;;;;;;2.77;0.73;;;16.40;51.50;;;;;;4949585;29;20272;-95
2021/04/07 06:55:10;;;;;;;3.07;0.80;;;16.40;51.80;;;;;;4931731;29;20209;-94
2021/04/07 06:57:40;;;;;;;2.87;0.90;;;16.40;51.50;;;;;;4937020;29;20221;-93
2021/04/07 07:00:07;;;;;;;2.47;0.80;;;16.40;51.80;;;;;;4932811;29;20245;-91
2021/04/07 07:02:34;;;;;;;6.33;0.90;;;16.30;51.80;;;;;;4933806;29;20203;-91
2021/04/07 07:05:01;;;;;;;2.90;1.07;;;16.40;51.70;;;;;;4933100;29;20214;-90
2021/04/07 07:07:32;;;;;;;2.17;1.07;;;16.40;51.70;;;;;;4937801;29;20214;-90
2021/04/07 07:09:59;;;;;;;2.63;0.90;;;16.40;51.80;;;;;;4931592;28;20198;-90
2021/04/07 07:12:27;;;;;;;3.23;1.00;;;16.30;51.90;;;;;;4935679;28;20233;-89
2021/04/07 07:14:54;;;;;;;4.60;0.97;;;16.30;52.00;;;;;;4920672;29;20199;-89
2021/04/07 07:17:31;;;;;;;3.57;1.07;;;16.40;52.10;;;;;;4928996;29;20211;-88
2021/04/07 07:19:58;;;;;;;2.30;0.83;;;16.40;52.00;;;;;;4931110;29;20202;-86
2021/04/07 07:22:27;;;;;;;5.20;0.73;;;16.30;51.90;;;;;;4937845;29;20842;-88
2021/04/07 07:24:56;;;;;;;3.17;0.83;;;16.40;52.70;;;;;;4919906;29;20217;-91
2021/04/07 07:27:43;;;;;;;2.43;0.87;;;16.30;51.90;;;;;;4930760;29;20693;-91
2021/04/07 07:30:12;;;;;;;1.00;0.70;;;16.40;52.60;;;;;;4906686;29;20242;-90
2021/04/07 07:32:40;;;;;;;2.63;0.87;;;16.30;52.00;;;;;;4905406;29;20210;-90
2021/04/07 07:35:11;;;;;;;4.73;1.23;;;16.30;52.00;;;;;;4924543;29;20203;-89
2021/04/07 07:37:40;;;;;;;2.93;0.97;;;16.30;51.90;;;;;;4916872;29;20219;-89
2021/04/07 07:40:18;;;;;;;2.10;1.03;;;16.30;52.00;;;;;;4919739;29;20206;-89
2021/04/07 07:42:46;;;;;;;2.80;0.70;;;16.30;52.00;;;;;;4887786;29;20195;-90
2021/04/07 07:45:14;;;;;;;2.13;0.60;;;16.30;52.10;;;;;;4907573;29;20585;-90
2021/04/07 07:47:44;;;;;;;1.13;0.67;;;16.30;52.00;;;;;;4919419;29;20203;-89
2021/04/07 07:50:14;;;;;;;1.80;0.60;;;16.30;52.10;;;;;;4905059;29;20856;-88
2021/04/07 07:52:42;;;;;;;2.13;0.80;;;16.30;52.10;;;;;;4905231;29;20199;-88
2021/04/07 07:55:14;;;;;;;3.67;0.70;;;16.30;52.10;;;;;;4900868;29;20664;-91
2021/04/07 07:57:51;;;;;;;2.20;0.70;;;16.30;52.10;;;;;;4916278;29;20543;-88
2021/04/07 08:00:18;;;;;;;1.67;0.70;;;16.30;52.10;;;;;;4917355;29;20198;-88
2021/04/07 08:02:44;;;;;;;1.00;0.50;;;16.20;52.10;;;;;;4901939;29;20175;-86
2021/04/07 08:05:17;;;;;;;1.63;0.63;;;16.30;52.30;;;;;;4917830;29;20672;-88
2021/04/07 08:07:46;;;;;;;0.93;0.60;;;16.30;52.10;;;;;;4910189;29;20211;-87
2021/04/07 08:10:14;;;;;;;1.23;0.60;;;16.30;52.20;;;;;;4916143;29;20207;-87
2021/04/07 08:12:42;;;;;;;1.57;0.60;;;16.30;52.20;;;;;;4899624;29;20887;-89
2021/04/07 08:15:09;;;;;;;2.77;0.60;;;16.30;52.10;;;;;;4900038;29;20823;-87
2021/04/07 08:17:42;;;;;;;0.97;0.70;;;16.30;52.10;;;;;;4926915;29;20705;-89
2021/04/07 08:20:11;;;;;;;3.07;0.70;;;16.20;52.20;;;;;;4902987;29;20422;-93
2021/04/07 08:22:44;;;;;;;4.20;0.40;;;16.30;52.80;;;;;;4924496;29;20218;-94
2021/04/07 08:25:15;;;;;;;1.73;0.40;;;16.40;53.00;;;;;;4916766;29;20199;-88
2021/04/07 08:27:42;;;;;;;2.20;0.50;;;16.40;52.90;;;;;;4902070;29;20214;-89
2021/04/07 08:30:13;;;;;;;1.33;0.40;;;16.50;52.80;;;;;;4937846;29;20257;-91
2021/04/07 08:32:40;;;;;;;0.90;0.50;;;16.60;52.80;;;;;;4935800;29;20191;-86
2021/04/07 08:35:11;;;;;;;1.17;0.60;;;16.60;52.90;;;;;;4931535;29;20229;-88
2021/04/07 08:37:37;;;;;;;1.90;0.60;;;16.60;53.10;;;;;;4939223;29;20218;-84
2021/04/07 08:40:15;;;;;;;1.70;0.67;;;16.60;52.90;;;;;;4933408;29;20205;-86
2021/04/07 08:42:44;;;;;;;0.63;0.50;;;16.70;52.90;;;;;;4933308;28;20199;-90
2021/04/07 08:45:13;;;;;;;1.10;0.50;;;16.80;52.60;;;;;;4932307;29;20205;-83
2021/04/07 08:48:02;;;;;;;0.43;0.40;;;17.30;52.00;;;;;;4960564;23;20234;-85
2021/04/07 08:50:30;;;;;;;3.00;0.60;;;17.90;50.80;;;;;;4904349;29;20603;-84
2021/04/07 09:06:27;;;;;;;1.10;0.67;;;18.90;48.30;;;;;;5150881;24;20250;-91
2021/04/07 09:09:05;;;;;;;1.17;0.40;;;19.00;48.10;;;;;;4821390;29;20203;-92
2021/04/07 09:11:47;;;;;;;0.90;0.53;;;19.10;47.60;;;;;;4809386;29;20298;-95
2021/04/07 09:14:14;;;;;;;1.20;0.50;;;19.20;47.60;;;;;;4804844;29;20183;-93
2021/04/07 09:16:41;;;;;;;0.50;0.30;;;19.20;47.50;;;;;;4806999;29;20253;-87
2021/04/07 09:19:20;;;;;;;1.00;0.60;;;19.30;47.30;;;;;;4809490;29;20203;-92
2021/04/07 09:21:55;;;;;;;0.87;0.60;;;19.30;47.10;;;;;;4816607;29;20279;-85
2021/04/07 09:24:23;;;;;;;1.63;0.70;;;19.50;47.00;;;;;;4803960;29;20210;-88
2021/04/07 09:26:54;;;;;;;1.67;0.50;;;19.50;46.80;;;;;;4823559;29;20203;-93
2021/04/07 09:29:21;;;;;;;1.13;0.70;;;19.50;46.60;;;;;;4815654;29;20209;-93
2021/04/07 09:31:51;;;;;;;1.60;0.70;;;19.50;46.60;;;;;;4852512;24;20250;-96
2021/04/07 09:34:18;;;;;;;1.20;0.60;;;19.70;46.80;;;;;;4784775;29;20204;-85
2021/04/07 09:36:48;;;;;;;1.63;0.70;;;19.70;46.40;;;;;;4804166;29;20226;-87
2021/04/07 09:39:17;;;;;;;1.57;0.70;;;19.80;46.20;;;;;;4805122;29;20202;-84
2021/04/07 09:41:45;;;;;;;1.40;0.70;;;19.80;46.20;;;;;;4791059;29;20274;-85
2021/04/07 09:44:16;;;;;;;2.30;0.60;;;19.90;46.00;;;;;;4803594;29;20206;-89
2021/04/07 09:46:55;;;;;;;0.93;0.70;;;20.00;45.90;;;;;;4804449;29;20221;-82
2021/04/07 09:49:29;;;;;;;1.87;0.97;;;20.20;45.90;;;;;;4819839;29;20735;-90
2021/04/07 09:51:57;;;;;;;1.73;0.60;;;20.20;45.80;;;;;;4929439;24;20373;-90
2021/04/07 10:01:12;;;;;;;5.10;1.03;;;20.20;45.70;;;;;;5183605;24;20275;-96
2021/04/07 10:03:53;;;;;;;2.50;1.20;;;20.30;45.50;;;;;;4795652;29;20210;-90
2021/04/07 10:06:25;;;;;;;4.20;1.63;;;20.40;45.40;;;;;;4794150;29;20593;-79
2021/04/07 10:09:04;;;;;;;10.40;1.43;;;20.20;45.80;;;;;;4787443;29;20207;-79
2021/04/07 10:11:34;;;;;;;3.27;1.23;;;19.90;46.80;;;;;;4803558;29;20226;-80
2021/04/07 10:14:02;;;;;;;3.07;1.30;;;19.60;47.10;;;;;;4803201;29;20191;-80
2021/04/07 10:16:38;;;;;;;4.13;1.93;;;19.40;47.30;;;;;;4803824;29;20242;-80
2021/04/07 10:19:10;;;;;;;5.33;1.80;;;19.30;47.50;;;;;;4799998;29;20252;-79
2021/04/07 10:21:39;;;;;;;3.93;1.57;;;19.20;47.70;;;;;;4797729;29;20748;-79
2021/04/07 10:24:07;;;;;;;3.93;1.73;;;19.00;47.60;;;;;;4784876;29;20279;-79
2021/04/07 10:26:44;;;;;;;3.43;1.50;;;18.90;47.70;;;;;;4784649;29;20204;-79
2021/04/07 10:29:25;;;;;;;3.73;1.90;;;18.90;47.80;;;;;;4784024;29;20215;-78
2021/04/07 10:31:54;;;;;;;6.27;2.20;;;18.80;47.80;;;;;;4785633;29;20208;-79
2021/04/07 10:34:34;;;;;;;5.40;2.10;;;18.80;47.80;;;;;;4794867;29;20681;-81
2021/04/07 10:37:03;;;;;;;6.03;2.20;;;18.70;47.90;;;;;;4794897;29;20242;-80
2021/04/07 10:39:43;;;;;;;4.13;1.93;;;18.70;48.40;;;;;;4796765;29;20483;-80
2021/04/07 10:42:17;;;;;;;4.70;2.20;;;18.60;48.20;;;;;;4800607;29;20195;-80
2021/04/07 10:45:02;;;;;;;3.47;1.80;;;18.60;48.60;;;;;;4803528;29;20187;-82
2021/04/07 10:47:37;;;;;;;3.97;1.80;;;18.60;48.30;;;;;;4797951;29;20192;-81
2021/04/07 10:50:06;;;;;;;4.90;1.90;;;18.60;48.90;;;;;;4782619;29;20713;-79
2021/04/07 10:52:40;;;;;;;5.60;2.33;;;18.50;48.60;;;;;;4795458;29;20582;-79
2021/04/07 10:55:13;;;;;;;6.20;2.40;;;18.40;48.20;;;;;;4780387;29;20242;-79
2021/04/07 10:57:42;;;;;;;5.50;2.13;;;18.40;48.40;;;;;;4793634;29;20219;-80
2021/04/07 11:00:23;;;;;;;8.60;2.07;;;18.40;48.60;;;;;;4787087;29;20207;-80
2021/04/07 11:02:52;;;;;;;5.77;2.03;;;18.30;48.70;;;;;;4767491;29;20200;-80
2021/04/07 11:05:23;;;;;;;7.03;2.20;;;18.30;48.80;;;;;;4790335;29;20211;-80
2021/04/07 11:08:19;;;;;;;7.13;2.50;;;18.30;48.80;;;;;;4792543;29;20214;-80
2021/04/07 11:10:48;;;;;;;6.60;2.10;;;18.20;49.10;;;;;;4784175;29;20597;-78
2021/04/07 11:13:19;;;;;;;4.80;1.97;;;18.20;49.20;;;;;;4791655;29;20211;-80
2021/04/07 11:15:46;;;;;;;5.80;2.30;;;18.20;49.20;;;;;;4779398;29;20214;-80
2021/04/07 11:18:15;;;;;;;8.83;2.57;;;18.10;48.80;;;;;;4802221;29;20226;-80
2021/04/07 11:20:43;;;;;;;5.63;2.40;;;18.10;48.80;;;;;;4791084;29;20254;-79
2021/04/07 11:23:12;;;;;;;6.17;2.60;;;18.00;48.60;;;;;;4798822;29;20215;-79
2021/04/07 11:25:39;;;;;;;6.73;2.40;;;18.00;48.70;;;;;;4801117;29;20629;-79
2021/04/07 11:28:15;;;;;;;5.83;2.07;;;18.00;48.70;;;;;;4790291;29;20220;-79
2021/04/07 11:30:54;;;;;;;7.10;2.50;;;18.00;48.60;;;;;;4793735;29;20534;-79
2021/04/07 11:33:23;;;;;;;6.73;2.43;;;18.00;48.90;;;;;;4792242;29;20286;-79
2021/04/07 11:36:18;;;;;;;5.97;2.07;;;18.00;48.90;;;;;;4795324;29;20275;-79
2021/04/07 11:39:11;;;;;;;5.13;1.97;;;17.90;49.00;;;;;;4785675;29;20257;-78
2021/04/07 11:42:03;;;;;;;5.70;2.10;;;17.90;49.10;;;;;;4800401;29;20202;-79
2021/04/07 11:44:30;;;;;;;6.57;2.30;;;17.90;49.10;;;;;;4796998;29;20706;-78
2021/04/07 11:47:02;;;;;;;6.57;2.40;;;17.90;49.20;;;;;;4793611;29;20223;-79
2021/04/07 11:49:45;;;;;;;5.23;2.00;;;17.90;49.20;;;;;;4787742;29;20222;-79
2021/04/07 11:52:15;;;;;;;7.53;2.30;;;17.80;49.00;;;;;;4779943;29;20553;-78
2021/04/07 11:54:41;;;;;;;5.73;2.33;;;17.80;49.10;;;;;;4793090;29;20780;-77
2021/04/07 11:57:11;;;;;;;6.17;2.50;;;17.80;49.00;;;;;;4796315;29;20219;-80
2021/04/07 11:59:37;;;;;;;6.23;2.13;;;17.80;49.30;;;;;;4796203;29;20211;-82
2021/04/07 12:02:04;;;;;;;5.37;2.23;;;17.80;48.80;;;;;;4769456;30;20996;-81
2021/04/07 12:04:32;;;;;;;6.30;1.97;;;17.70;48.90;;;;;;4773853;29;20208;-79
2021/04/07 12:07:02;;;;;;;8.13;2.17;;;17.70;49.00;;;;;;4757588;30;20228;-79
2021/04/07 12:09:28;;;;;;;5.33;2.07;;;17.70;48.90;;;;;;4781842;30;20200;-79
2021/04/07 12:11:56;;;;;;;6.23;2.50;;;17.70;49.00;;;;;;4782977;29;20208;-78
2021/04/07 12:14:22;;;;;;;6.70;2.10;;;17.70;48.90;;;;;;4782186;29;20226;-79
2021/04/07 12:16:49;;;;;;;5.13;1.90;;;17.70;48.90;;;;;;4775616;29;20273;-79
2021/04/07 12:19:20;;;;;;;5.53;2.03;;;17.70;48.90;;;;;;4779025;29;20748;-79
2021/04/07 12:21:46;;;;;;;5.67;2.03;;;17.70;48.90;;;;;;4776700;29;20718;-79
2021/04/07 12:24:15;;;;;;;6.00;1.97;;;17.60;48.80;;;;;;4766892;30;20207;-79
2021/04/07 12:26:42;;;;;;;7.20;2.70;;;17.70;48.80;;;;;;4767938;30;20212;-79
2021/04/07 12:29:11;;;;;;;4.30;2.03;;;17.60;48.70;;;;;;4767799;30;20201;-79
2021/04/07 12:31:37;;;;;;;6.23;2.03;;;17.70;48.90;;;;;;4772338;29;20219;-79
2021/04/07 12:34:08;;;;;;;7.50;2.10;;;17.60;49.00;;;;;;4775583;29;20202;-79
2021/04/07 12:36:35;;;;;;;4.67;1.60;;;17.70;49.10;;;;;;4771914;30;20208;-80
2021/04/07 12:39:03;;;;;;;4.83;1.70;;;17.70;49.00;;;;;;4770092;30;20208;-79
2021/04/07 12:41:44;;;;;;;4.97;1.50;;;17.70;49.60;;;;;;4772905;29;20204;-80
2021/04/07 12:44:10;;;;;;;5.43;1.80;;;17.70;49.20;;;;;;4755922;30;20199;-80
2021/04/07 12:46:37;;;;;;;6.17;2.07;;;17.60;49.10;;;;;;4772051;30;20216;-80
2021/04/07 12:49:04;;;;;;;3.13;1.50;;;17.60;49.20;;;;;;4772917;30;20865;-80
2021/04/07 12:51:30;;;;;;;5.07;1.70;;;17.60;49.20;;;;;;4773987;30;20232;-80
2021/04/07 12:54:10;;;;;;;5.07;1.43;;;17.60;49.10;;;;;;4779866;29;20865;-82
2021/04/07 12:56:36;;;;;;;4.37;1.70;;;17.50;48.90;;;;;;4779037;30;20606;-80
2021/04/07 12:59:04;;;;;;;7.30;1.53;;;17.50;48.90;;;;;;4781914;29;20196;-80
2021/04/07 13:01:33;;;;;;;4.27;1.83;;;17.50;48.90;;;;;;4783166;29;20232;-81
2021/04/07 13:04:01;;;;;;;5.27;1.80;;;17.50;49.00;;;;;;4798738;29;20207;-80
2021/04/07 13:06:27;;;;;;;4.67;1.40;;;17.50;49.00;;;;;;4795222;29;20214;-87
2021/04/07 13:08:54;;;;;;;3.67;1.23;;;17.50;49.00;;;;;;4777406;29;20603;-82
2021/04/07 13:11:20;;;;;;;4.80;1.40;;;17.50;49.00;;;;;;4793074;29;20211;-81
2021/04/07 13:13:46;;;;;;;3.73;1.40;;;17.50;49.00;;;;;;4791631;29;20218;-81
2021/04/07 13:16:17;;;;;;;4.47;1.30;;;17.40;49.10;;;;;;4791401;29;20265;-81
2021/04/07 13:18:44;;;;;;;5.83;1.97;;;17.50;49.40;;;;;;4787776;29;20222;-81
2021/04/07 13:21:12;;;;;;;4.37;1.63;;;17.40;49.20;;;;;;4799700;29;20300;-81